Portada
METAR-TAF:

METAR-TAF

Aeroports :

Guaratinguetá, São Paulo, Brasil

latitud: 22-47S, longitud: 045-12W, altitud: 537 m

Observació

L'informe es va fer fa 1 hora i 52 minuts, a les 22:00 UTC
Vent 2 kt del Nord-Est
Temperatura 22°C
Humitat 50%
Pressió 1016 hPa
Visibilitat 10 km o més
sense núvols per sota de 1500 mi sense presència de cumulonimbus.

METAR: SBGW 122200Z 04002KT CAVOK 22/11 Q1016

Hora: 20:52 (23:52 UTC)

Pronòstic

L'informe es va fer fa 8 hores i 52 minuts, a les 15:00 UTC
Pronòstic vàlid del 12 a les 18 UTC al 13 a les 06 UTC
Vent 8 kt del Est/Nord-Est
Visibilitat 10 km o més
Escasses núvols a una alçada de 4000 ft
Evolucionant progressivament
l' 12 a les 22 UTC al 12 a les 24 UTC
Vent 3 kt del Nord/Nord-Est

TAF: SBGW 121500Z 1218/1306 06008KT 9999 FEW040 TX30/1218Z TN15/1306Z BECMG 1222/1224 03003KT RMK PEH

Observacions i pronòstics meteorològics de més de 4000 aeroports (METAR i TAF).

Les estacions disponibles són els punts grocs i vermells al mapa.

Posi el ratolí al punt desitjat per veure el nom de l'estació.

Feu clic per veure les observacions i els pronòstics meteorològics.

Per canviar el mapa: feu clic els botons verds amb una creu de color negre per apropar; al botó verd amb un guió per allunyar la imatge; o en les fletxes verdes per a mapes adjacents.


METAR-TAF: